sensor_id;sensor_type;location;lat;lon;timestamp;pressure;altitude;pressure_sealevel;temperature;humidity
30856;BME280;17570;0.000;0.000;2022-10-14T00:01:05;97353.36;;;20.88;39.89
30856;BME280;17570;0.000;0.000;2022-10-14T00:03:33;97346.50;;;20.79;39.97
30856;BME280;17570;0.000;0.000;2022-10-14T00:06:13;97347.22;;;20.73;40.29
30856;BME280;17570;0.000;0.000;2022-10-14T00:08:36;97348.03;;;20.73;40.16
30856;BME280;17570;0.000;0.000;2022-10-14T00:11:06;97342.28;;;20.70;40.06
30856;BME280;17570;0.000;0.000;2022-10-14T00:13:34;97336.38;;;20.68;40.20
30856;BME280;17570;0.000;0.000;2022-10-14T00:16:04;97332.45;;;20.63;40.35
30856;BME280;17570;0.000;0.000;2022-10-14T00:18:32;97327.52;;;20.60;40.27
30856;BME280;17570;0.000;0.000;2022-10-14T00:21:00;97326.98;;;20.65;40.34
30856;BME280;17570;0.000;0.000;2022-10-14T00:23:29;97330.81;;;20.62;39.99
30856;BME280;17570;0.000;0.000;2022-10-14T00:25:56;97327.52;;;20.60;40.07
30856;BME280;17570;0.000;0.000;2022-10-14T00:28:25;97325.77;;;20.53;40.08
30856;BME280;17570;0.000;0.000;2022-10-14T00:30:57;97321.03;;;20.48;40.00
30856;BME280;17570;0.000;0.000;2022-10-14T00:33:25;97322.34;;;20.44;40.45
30856;BME280;17570;0.000;0.000;2022-10-14T00:36:02;97324.31;;;20.42;40.35
30856;BME280;17570;0.000;0.000;2022-10-14T00:38:26;97320.23;;;20.39;40.25
30856;BME280;17570;0.000;0.000;2022-10-14T00:40:54;97324.73;;;20.31;40.38
30856;BME280;17570;0.000;0.000;2022-10-14T00:43:23;97320.27;;;20.31;40.18
30856;BME280;17570;0.000;0.000;2022-10-14T00:45:51;97320.41;;;20.38;40.19
30856;BME280;17570;0.000;0.000;2022-10-14T00:48:20;97317.41;;;20.41;40.67
30856;BME280;17570;0.000;0.000;2022-10-14T00:50:50;97324.25;;;20.58;41.44
30856;BME280;17570;0.000;0.000;2022-10-14T00:53:18;97315.33;;;20.59;41.55
30856;BME280;17570;0.000;0.000;2022-10-14T00:55:48;97318.50;;;20.55;41.08
30856;BME280;17570;0.000;0.000;2022-10-14T00:58:16;97303.39;;;20.49;41.19
30856;BME280;17570;0.000;0.000;2022-10-14T01:00:43;97306.02;;;20.49;41.09
30856;BME280;17570;0.000;0.000;2022-10-14T01:03:18;97302.38;;;20.50;40.72
30856;BME280;17570;0.000;0.000;2022-10-14T01:06:00;97305.02;;;20.50;40.67
30856;BME280;17570;0.000;0.000;2022-10-14T01:08:26;97304.41;;;20.39;40.65
30856;BME280;17570;0.000;0.000;2022-10-14T01:11:05;97305.22;;;20.40;40.86
30856;BME280;17570;0.000;0.000;2022-10-14T01:13:31;97300.66;;;20.34;40.87
30856;BME280;17570;0.000;0.000;2022-10-14T01:21:30;97292.50;;;20.21;40.74
30856;BME280;17570;0.000;0.000;2022-10-14T01:26:37;97288.57;;;20.17;40.70
30856;BME280;17570;0.000;0.000;2022-10-14T01:31:47;97299.81;;;20.10;40.80
30856;BME280;17570;0.000;0.000;2022-10-14T01:34:19;97291.95;;;20.02;41.14
30856;BME280;17570;0.000;0.000;2022-10-14T01:36:47;97294.25;;;20.05;41.19
30856;BME280;17570;0.000;0.000;2022-10-14T01:39:20;97284.00;;;20.10;40.89
30856;BME280;17570;0.000;0.000;2022-10-14T01:41:58;97277.06;;;20.09;41.03
30856;BME280;17570;0.000;0.000;2022-10-14T01:44:17;97280.07;;;20.06;40.87
30856;BME280;17570;0.000;0.000;2022-10-14T01:46:48;97281.07;;;20.05;41.01
30856;BME280;17570;0.000;0.000;2022-10-14T01:49:19;97275.44;;;20.08;41.00
30856;BME280;17570;0.000;0.000;2022-10-14T01:51:51;97277.44;;;20.06;40.85
30856;BME280;17570;0.000;0.000;2022-10-14T01:54:15;97279.07;;;20.07;40.70
30856;BME280;17570;0.000;0.000;2022-10-14T01:56:43;97276.32;;;20.01;40.71
30856;BME280;17570;0.000;0.000;2022-10-14T01:59:13;97276.14;;;20.02;40.85
30856;BME280;17570;0.000;0.000;2022-10-14T02:01:41;97279.77;;;20.01;40.84
30856;BME280;17570;0.000;0.000;2022-10-14T02:04:16;97270.91;;;19.94;40.89
30856;BME280;17570;0.000;0.000;2022-10-14T02:06:48;97268.16;;;19.87;41.02
30856;BME280;17570;0.000;0.000;2022-10-14T02:09:21;97271.01;;;19.78;41.10
30856;BME280;17570;0.000;0.000;2022-10-14T02:16:58;97271.67;;;19.72;41.31
30856;BME280;17570;0.000;0.000;2022-10-14T02:19:43;97271.34;;;19.75;41.36
30856;BME280;17570;0.000;0.000;2022-10-14T02:22:21;97272.49;;;19.72;41.31
30856;BME280;17570;0.000;0.000;2022-10-14T02:24:50;97271.73;;;19.64;41.67
30856;BME280;17570;0.000;0.000;2022-10-14T02:27:17;97269.92;;;19.64;41.40
30856;BME280;17570;0.000;0.000;2022-10-14T02:29:46;97264.14;;;19.69;41.39
30856;BME280;17570;0.000;0.000;2022-10-14T02:32:15;97266.59;;;19.70;41.23
30856;BME280;17570;0.000;0.000;2022-10-14T02:34:44;97273.98;;;19.75;41.36
30856;BME280;17570;0.000;0.000;2022-10-14T02:37:13;97272.49;;;19.72;41.36
30856;BME280;17570;0.000;0.000;2022-10-14T02:39:42;97266.62;;;19.62;41.29
30856;BME280;17570;0.000;0.000;2022-10-14T02:42:10;97281.27;;;19.56;41.40
30856;BME280;17570;0.000;0.000;2022-10-14T02:44:50;97280.60;;;19.62;41.62
30856;BME280;17570;0.000;0.000;2022-10-14T02:47:07;97270.06;;;19.62;41.36
30856;BME280;17570;0.000;0.000;2022-10-14T02:49:34;97271.55;;;19.65;41.35
30856;BME280;17570;0.000;0.000;2022-10-14T02:52:02;97266.47;;;19.64;41.38
30856;BME280;17570;0.000;0.000;2022-10-14T02:54:30;97269.92;;;19.64;41.37
30856;BME280;17570;0.000;0.000;2022-10-14T02:56:57;97275.33;;;19.62;41.55
30856;BME280;17570;0.000;0.000;2022-10-14T02:59:25;97274.84;;;19.59;41.46
30856;BME280;17570;0.000;0.000;2022-10-14T03:01:53;97267.77;;;19.59;41.41
30856;BME280;17570;0.000;0.000;2022-10-14T03:04:21;97272.06;;;19.60;41.37
30856;BME280;17570;0.000;0.000;2022-10-14T03:06:50;97268.61;;;19.60;41.54
30856;BME280;17570;0.000;0.000;2022-10-14T03:09:20;97272.55;;;19.56;41.46
30856;BME280;17570;0.000;0.000;2022-10-14T03:11:48;97272.36;;;19.57;41.71
30856;BME280;17570;0.000;0.000;2022-10-14T03:14:17;97262.83;;;19.56;41.71
30856;BME280;17570;0.000;0.000;2022-10-14T03:16:44;97251.30;;;19.57;41.67
30856;BME280;17570;0.000;0.000;2022-10-14T03:19:14;97256.56;;;19.57;41.62
30856;BME280;17570;0.000;0.000;2022-10-14T03:21:43;97256.11;;;19.54;41.65
30856;BME280;17570;0.000;0.000;2022-10-14T03:24:12;97257.23;;;19.59;41.58
30856;BME280;17570;0.000;0.000;2022-10-14T03:26:40;97259.38;;;19.56;41.52
30856;BME280;17570;0.000;0.000;2022-10-14T03:29:08;97253.62;;;19.52;41.48
30856;BME280;17570;0.000;0.000;2022-10-14T03:31:40;97249.54;;;19.50;41.64
30856;BME280;17570;0.000;0.000;2022-10-14T03:34:12;97253.14;;;19.49;41.71
30856;BME280;17570;0.000;0.000;2022-10-14T03:36:40;97248.87;;;19.48;41.88
30856;BME280;17570;0.000;0.000;2022-10-14T03:39:09;97255.27;;;19.53;41.73
30856;BME280;17570;0.000;0.000;2022-10-14T03:41:39;97254.32;;;19.46;41.46
30856;BME280;17570;0.000;0.000;2022-10-14T03:44:07;97255.98;;;19.39;41.46
30856;BME280;17570;0.000;0.000;2022-10-14T03:46:38;97251.89;;;19.36;41.51
30856;BME280;17570;0.000;0.000;2022-10-14T03:49:07;97246.44;;;19.38;41.50
30856;BME280;17570;0.000;0.000;2022-10-14T03:51:35;97248.44;;;19.36;41.29
30856;BME280;17570;0.000;0.000;2022-10-14T03:54:07;97250.77;;;19.31;41.21
30856;BME280;17570;0.000;0.000;2022-10-14T03:56:35;97242.58;;;19.18;41.44
30856;BME280;17570;0.000;0.000;2022-10-14T03:59:03;97244.21;;;19.19;41.52
30856;BME280;17570;0.000;0.000;2022-10-14T04:01:30;97244.02;;;19.28;41.70
30856;BME280;17570;0.000;0.000;2022-10-14T04:04:06;97244.94;;;19.44;43.08
30856;BME280;17570;0.000;0.000;2022-10-14T04:06:34;97242.16;;;19.45;43.41
30856;BME280;17570;0.000;0.000;2022-10-14T04:09:03;97248.72;;;19.49;42.90
30856;BME280;17570;0.000;0.000;2022-10-14T04:11:32;97246.09;;;19.49;42.72
30856;BME280;17570;0.000;0.000;2022-10-14T04:14:01;97239.31;;;19.55;42.38
30856;BME280;17570;0.000;0.000;2022-10-14T04:16:30;97239.12;;;19.56;42.51
30856;BME280;17570;0.000;0.000;2022-10-14T04:19:03;97241.58;;;19.58;42.16
30856;BME280;17570;0.000;0.000;2022-10-14T04:21:35;97242.77;;;19.55;41.61
30856;BME280;17570;0.000;0.000;2022-10-14T04:24:03;97239.83;;;19.50;41.46
30856;BME280;17570;0.000;0.000;2022-10-14T04:26:35;97246.12;;;19.41;41.28
30856;BME280;17570;0.000;0.000;2022-10-14T04:29:05;97237.55;;;19.39;41.45
30856;BME280;17570;0.000;0.000;2022-10-14T04:31:34;97240.88;;;19.33;41.43
30856;BME280;17570;0.000;0.000;2022-10-14T04:34:02;97247.46;;;19.29;41.44
30856;BME280;17570;0.000;0.000;2022-10-14T04:36:31;97238.92;;;19.27;41.44
30856;BME280;17570;0.000;0.000;2022-10-14T04:38:59;97240.25;;;19.23;41.50
30856;BME280;17570;0.000;0.000;2022-10-14T04:41:27;97233.50;;;19.20;41.31
30856;BME280;17570;0.000;0.000;2022-10-14T04:43:56;97234.33;;;19.21;41.24
30856;BME280;17570;0.000;0.000;2022-10-14T04:46:29;97234.37;;;19.13;41.53
30856;BME280;17570;0.000;0.000;2022-10-14T04:48:57;97233.87;;;19.09;41.67
30856;BME280;17570;0.000;0.000;2022-10-14T04:51:26;97243.73;;;19.07;41.66
30856;BME280;17570;0.000;0.000;2022-10-14T04:53:58;97242.96;;;18.98;41.71
30856;BME280;17570;0.000;0.000;2022-10-14T04:56:33;97245.09;;;18.95;41.49
30856;BME280;17570;0.000;0.000;2022-10-14T04:59:02;97241.10;;;19.07;43.29
30856;BME280;17570;0.000;0.000;2022-10-14T05:01:46;97247.16;;;19.24;44.43
30856;BME280;17570;0.000;0.000;2022-10-14T05:04:14;97245.84;;;19.20;44.46
30856;BME280;17570;0.000;0.000;2022-10-14T05:06:42;97245.20;;;19.18;43.82
30856;BME280;17570;0.000;0.000;2022-10-14T05:09:21;97240.77;;;19.18;43.12
30856;BME280;17570;0.000;0.000;2022-10-14T05:11:49;97249.16;;;19.14;43.01
30856;BME280;17570;0.000;0.000;2022-10-14T05:14:18;97244.91;;;19.04;42.95
30856;BME280;17570;0.000;0.000;2022-10-14T05:16:47;97245.40;;;19.08;42.88
30856;BME280;17570;0.000;0.000;2022-10-14T05:19:16;97239.47;;;19.06;42.91
30856;BME280;17570;0.000;0.000;2022-10-14T05:21:46;97244.10;;;18.96;42.41
30856;BME280;17570;0.000;0.000;2022-10-14T05:24:15;97239.33;;;18.99;42.59
30856;BME280;17570;0.000;0.000;2022-10-14T05:26:43;97238.02;;;18.95;42.65
30856;BME280;17570;0.000;0.000;2022-10-14T05:29:11;97231.77;;;18.96;42.81
30856;BME280;17570;0.000;0.000;2022-10-14T05:31:39;97239.66;;;18.96;42.69
30856;BME280;17570;0.000;0.000;2022-10-14T05:34:08;97246.73;;;18.96;42.84
30856;BME280;17570;0.000;0.000;2022-10-14T05:36:36;97240.98;;;18.92;42.60
30856;BME280;17570;0.000;0.000;2022-10-14T05:39:07;97235.06;;;18.98;42.90
30856;BME280;17570;0.000;0.000;2022-10-14T05:41:35;97234.89;;;19.00;42.99
30856;BME280;17570;0.000;0.000;2022-10-14T05:44:03;97237.34;;;19.01;42.94
30856;BME280;17570;0.000;0.000;2022-10-14T05:46:32;97241.61;;;19.02;42.77
30856;BME280;17570;0.000;0.000;2022-10-14T05:49:00;97242.60;;;19.01;42.90
30856;BME280;17570;0.000;0.000;2022-10-14T05:51:33;97235.68;;;19.17;44.17
30856;BME280;17570;0.000;0.000;2022-10-14T05:54:01;97237.30;;;19.26;44.52
30856;BME280;17570;0.000;0.000;2022-10-14T05:56:30;97244.19;;;19.27;44.01
30856;BME280;17570;0.000;0.000;2022-10-14T05:59:00;97238.57;;;19.30;44.11
30856;BME280;17570;0.000;0.000;2022-10-14T06:01:27;97240.55;;;19.36;43.82
30856;BME280;17570;0.000;0.000;2022-10-14T06:03:56;97234.09;;;19.38;43.50
30856;BME280;17570;0.000;0.000;2022-10-14T06:06:25;97246.93;;;19.42;43.44
30856;BME280;17570;0.000;0.000;2022-10-14T06:08:55;97250.20;;;19.44;43.31
30856;BME280;17570;0.000;0.000;2022-10-14T06:11:23;97251.87;;;19.45;43.07
30856;BME280;17570;0.000;0.000;2022-10-14T06:13:51;97253.32;;;19.47;43.03
30856;BME280;17570;0.000;0.000;2022-10-14T06:16:19;97257.59;;;19.48;43.05
30856;BME280;17570;0.000;0.000;2022-10-14T06:18:46;97263.52;;;19.50;43.04
30856;BME280;17570;0.000;0.000;2022-10-14T06:21:14;97261.20;;;19.55;42.76
30856;BME280;17570;0.000;0.000;2022-10-14T06:23:41;97258.38;;;19.57;42.82
30856;BME280;17570;0.000;0.000;2022-10-14T06:26:09;97262.50;;;19.59;42.68
30856;BME280;17570;0.000;0.000;2022-10-14T06:28:37;97267.41;;;16.54;47.32
30856;BME280;17570;0.000;0.000;2022-10-14T06:31:04;97267.41;;;18.01;45.45
30856;BME280;17570;0.000;0.000;2022-10-14T06:33:32;97269.45;;;18.80;44.08
30856;BME280;17570;0.000;0.000;2022-10-14T06:36:03;97266.59;;;19.15;43.40
30856;BME280;17570;0.000;0.000;2022-10-14T06:38:32;97265.98;;;19.52;44.86
30856;BME280;17570;0.000;0.000;2022-10-14T06:41:00;97264.08;;;19.77;46.45
30856;BME280;17570;0.000;0.000;2022-10-14T06:43:27;97258.09;;;19.91;46.01
30856;BME280;17570;0.000;0.000;2022-10-14T06:45:55;97261.66;;;19.98;46.20
30856;BME280;17570;0.000;0.000;2022-10-14T06:48:23;97262.78;;;20.04;44.83
30856;BME280;17570;0.000;0.000;2022-10-14T06:50:51;97262.92;;;20.10;44.25
30856;BME280;17570;0.000;0.000;2022-10-14T06:53:19;97269.48;;;20.15;43.76
30856;BME280;17570;0.000;0.000;2022-10-14T06:55:47;97265.66;;;20.17;43.27
30856;BME280;17570;0.000;0.000;2022-10-14T06:58:14;97262.50;;;20.22;42.99
30856;BME280;17570;0.000;0.000;2022-10-14T07:00:42;97263.50;;;20.21;42.48
30856;BME280;17570;0.000;0.000;2022-10-14T07:03:09;97261.88;;;20.20;42.43
30856;BME280;17570;0.000;0.000;2022-10-14T07:05:37;97261.69;;;20.44;44.01
30856;BME280;17570;0.000;0.000;2022-10-14T07:08:04;97265.72;;;20.78;45.11
30856;BME280;17570;0.000;0.000;2022-10-14T07:10:32;97263.30;;;20.91;44.66
30856;BME280;17570;0.000;0.000;2022-10-14T07:12:59;97260.84;;;20.89;43.59
30856;BME280;17570;0.000;0.000;2022-10-14T07:15:27;97257.01;;;20.92;43.74
30856;BME280;17570;0.000;0.000;2022-10-14T07:17:54;97252.73;;;20.91;43.07
30856;BME280;17570;0.000;0.000;2022-10-14T07:20:22;97247.72;;;20.81;42.66
30856;BME280;17570;0.000;0.000;2022-10-14T07:22:53;97248.72;;;20.80;42.51
30856;BME280;17570;0.000;0.000;2022-10-14T07:25:19;97244.36;;;20.87;42.26
30856;BME280;17570;0.000;0.000;2022-10-14T07:27:46;97244.89;;;20.83;42.02
30856;BME280;17570;0.000;0.000;2022-10-14T07:30:14;97245.45;;;20.93;41.56
30856;BME280;17570;0.000;0.000;2022-10-14T07:32:42;97246.38;;;21.00;40.83
30856;BME280;17570;0.000;0.000;2022-10-14T07:35:09;97245.72;;;20.98;40.54
30856;BME280;17570;0.000;0.000;2022-10-14T07:37:37;97242.11;;;20.99;39.61
30856;BME280;17570;0.000;0.000;2022-10-14T07:40:05;97245.02;;;20.89;39.47
30856;BME280;17570;0.000;0.000;2022-10-14T07:42:32;97242.18;;;20.91;39.78
30856;BME280;17570;0.000;0.000;2022-10-14T07:45:00;97235.91;;;21.07;39.24
30856;BME280;17570;0.000;0.000;2022-10-14T07:47:28;97238.00;;;21.11;38.91
30856;BME280;17570;0.000;0.000;2022-10-14T07:49:58;97234.19;;;21.14;38.47
30856;BME280;17570;0.000;0.000;2022-10-14T07:52:27;97231.74;;;21.12;38.49
30856;BME280;17570;0.000;0.000;2022-10-14T07:54:55;97226.08;;;21.15;38.22
30856;BME280;17570;0.000;0.000;2022-10-14T07:57:23;97230.55;;;21.15;37.60
30856;BME280;17570;0.000;0.000;2022-10-14T07:59:50;97222.34;;;21.25;37.53
30856;BME280;17570;0.000;0.000;2022-10-14T08:02:18;97228.71;;;21.30;37.93
30856;BME280;17570;0.000;0.000;2022-10-14T08:04:45;97217.83;;;21.33;37.57
30856;BME280;17570;0.000;0.000;2022-10-14T08:07:13;97217.64;;;21.50;38.74
30856;BME280;17570;0.000;0.000;2022-10-14T08:09:41;97210.95;;;21.69;37.78
30856;BME280;17570;0.000;0.000;2022-10-14T08:12:08;97209.98;;;21.55;36.94
30856;BME280;17570;0.000;0.000;2022-10-14T08:14:36;97216.34;;;21.60;37.57
30856;BME280;17570;0.000;0.000;2022-10-14T08:17:04;97210.05;;;21.61;37.33
30856;BME280;17570;0.000;0.000;2022-10-14T08:19:40;97206.59;;;21.61;37.24
30856;BME280;17570;0.000;0.000;2022-10-14T08:22:07;97193.02;;;21.64;36.38
30856;BME280;17570;0.000;0.000;2022-10-14T08:24:35;97200.75;;;21.65;36.57
30856;BME280;17570;0.000;0.000;2022-10-14T08:27:02;97196.13;;;21.89;35.95
30856;BME280;17570;0.000;0.000;2022-10-14T08:29:31;97202.56;;;22.01;35.22
30856;BME280;17570;0.000;0.000;2022-10-14T08:31:59;97199.83;;;21.95;35.72
30856;BME280;17570;0.000;0.000;2022-10-14T08:34:27;97197.19;;;21.95;36.20
30856;BME280;17570;0.000;0.000;2022-10-14T08:36:56;97194.20;;;22.19;35.19
30856;BME280;17570;0.000;0.000;2022-10-14T08:39:24;97194.27;;;22.26;34.97
30856;BME280;17570;0.000;0.000;2022-10-14T08:47:11;97194.44;;;22.46;34.03
30856;BME280;17570;0.000;0.000;2022-10-14T08:52:29;97204.89;;;23.10;34.31
30856;BME280;17570;0.000;0.000;2022-10-14T08:54:56;97203.94;;;22.89;34.26
30856;BME280;17570;0.000;0.000;2022-10-14T08:57:26;97200.64;;;23.15;35.29
30856;BME280;17570;0.000;0.000;2022-10-14T08:59:53;97202.84;;;23.53;34.67
30856;BME280;17570;0.000;0.000;2022-10-14T09:02:30;97201.05;;;23.60;33.88
30856;BME280;17570;0.000;0.000;2022-10-14T09:04:55;97199.39;;;23.53;33.90
30856;BME280;17570;0.000;0.000;2022-10-14T09:07:24;97204.03;;;23.44;32.30
30856;BME280;17570;0.000;0.000;2022-10-14T09:09:53;97196.95;;;23.58;31.63
30856;BME280;17570;0.000;0.000;2022-10-14T09:12:30;97202.33;;;23.64;31.10
30856;BME280;17570;0.000;0.000;2022-10-14T09:15:40;97199.68;;;23.64;31.03
30856;BME280;17570;0.000;0.000;2022-10-14T09:17:23;97186.44;;;23.78;31.01
30856;BME280;17570;0.000;0.000;2022-10-14T09:20:37;97184.25;;;23.88;31.12
30856;BME280;17570;0.000;0.000;2022-10-14T09:22:21;97191.00;;;24.10;29.98
30856;BME280;17570;0.000;0.000;2022-10-14T09:24:50;97189.98;;;24.25;28.81
30856;BME280;17570;0.000;0.000;2022-10-14T09:27:18;97187.80;;;24.41;29.23
30856;BME280;17570;0.000;0.000;2022-10-14T09:34:48;97192.66;;;24.84;29.40
30856;BME280;17570;0.000;0.000;2022-10-14T09:37:21;97185.92;;;24.95;28.87
30856;BME280;17570;0.000;0.000;2022-10-14T09:39:48;97187.92;;;25.06;29.75
30856;BME280;17570;0.000;0.000;2022-10-14T09:42:26;97192.84;;;25.16;30.22
30856;BME280;17570;0.000;0.000;2022-10-14T09:45:07;97191.37;;;25.27;30.85
30856;BME280;17570;0.000;0.000;2022-10-14T09:50:24;97189.88;;;25.44;30.12
30856;BME280;17570;0.000;0.000;2022-10-14T09:52:51;97189.65;;;25.52;29.60
30856;BME280;17570;0.000;0.000;2022-10-14T09:55:20;97194.27;;;25.77;28.76
30856;BME280;17570;0.000;0.000;2022-10-14T09:58:03;97188.23;;;25.94;28.10
30856;BME280;17570;0.000;0.000;2022-10-14T10:00:31;97190.59;;;26.09;27.63
30856;BME280;17570;0.000;0.000;2022-10-14T10:03:00;97189.89;;;26.20;27.96
30856;BME280;17570;0.000;0.000;2022-10-14T10:05:29;97183.47;;;26.35;27.36
30856;BME280;17570;0.000;0.000;2022-10-14T10:08:01;97180.86;;;26.53;27.23
30856;BME280;17570;0.000;0.000;2022-10-14T10:10:29;97181.36;;;26.68;27.62
30856;BME280;17570;0.000;0.000;2022-10-14T10:12:57;97182.36;;;26.92;26.51
30856;BME280;17570;0.000;0.000;2022-10-14T10:15:24;97174.18;;;27.12;26.32
30856;BME280;17570;0.000;0.000;2022-10-14T10:17:52;97178.27;;;27.33;25.99
30856;BME280;17570;0.000;0.000;2022-10-14T10:22:56;97171.84;;;27.71;25.48
30856;BME280;17570;0.000;0.000;2022-10-14T10:25:25;97165.75;;;27.82;24.47
30856;BME280;17570;0.000;0.000;2022-10-14T10:27:54;97167.42;;;27.95;24.60
30856;BME280;17570;0.000;0.000;2022-10-14T10:35:26;97150.36;;;28.38;22.40
30856;BME280;17570;0.000;0.000;2022-10-14T10:43:22;97158.98;;;29.10;23.22
30856;BME280;17570;0.000;0.000;2022-10-14T10:51:13;97147.64;;;29.32;23.07
30856;BME280;17570;0.000;0.000;2022-10-14T10:56:48;97141.30;;;29.49;22.29
30856;BME280;17570;0.000;0.000;2022-10-14T11:04:49;97135.37;;;29.59;20.90
30856;BME280;17570;0.000;0.000;2022-10-14T11:07:22;97141.40;;;29.66;22.36
30856;BME280;17570;0.000;0.000;2022-10-14T11:13:06;97135.77;;;29.96;21.80
30856;BME280;17570;0.000;0.000;2022-10-14T11:15:39;97128.94;;;29.89;21.58
30856;BME280;17570;0.000;0.000;2022-10-14T11:18:08;97126.29;;;30.06;21.45
30856;BME280;17570;0.000;0.000;2022-10-14T11:20:58;97111.22;;;30.16;21.49
30856;BME280;17570;0.000;0.000;2022-10-14T11:23:23;97121.95;;;30.33;21.07
30856;BME280;17570;0.000;0.000;2022-10-14T11:25:50;97109.66;;;30.54;22.97
30856;BME280;17570;0.000;0.000;2022-10-14T11:31:10;97110.57;;;30.98;21.26
30856;BME280;17570;0.000;0.000;2022-10-14T11:33:37;97107.20;;;31.08;22.42
30856;BME280;17570;0.000;0.000;2022-10-14T11:38:53;97107.89;;;31.42;21.87
30856;BME280;17570;0.000;0.000;2022-10-14T11:41:24;97106.15;;;31.53;19.55
30856;BME280;17570;0.000;0.000;2022-10-14T11:46:28;97095.98;;;31.82;20.57
30856;BME280;17570;0.000;0.000;2022-10-14T11:48:57;97088.33;;;31.96;19.95
30856;BME280;17570;0.000;0.000;2022-10-14T11:51:33;97082.80;;;32.13;19.16
30856;BME280;17570;0.000;0.000;2022-10-14T11:54:14;97082.94;;;32.28;19.33
30856;BME280;17570;0.000;0.000;2022-10-14T11:56:59;97091.56;;;32.35;18.96
30856;BME280;17570;0.000;0.000;2022-10-14T12:04:42;97077.50;;;32.55;20.39
30856;BME280;17570;0.000;0.000;2022-10-14T12:07:13;97086.45;;;32.71;20.02
30856;BME280;17570;0.000;0.000;2022-10-14T12:10:03;97076.82;;;32.80;18.81
30856;BME280;17570;0.000;0.000;2022-10-14T12:12:15;97063.93;;;32.87;18.55
30856;BME280;17570;0.000;0.000;2022-10-14T12:14:45;97066.09;;;32.85;16.90
30856;BME280;17570;0.000;0.000;2022-10-14T12:17:29;97056.65;;;32.83;16.95
30856;BME280;17570;0.000;0.000;2022-10-14T12:19:55;97049.64;;;32.76;15.93
30856;BME280;17570;0.000;0.000;2022-10-14T12:22:24;97057.94;;;32.65;15.55
30856;BME280;17570;0.000;0.000;2022-10-14T12:24:53;97058.15;;;32.58;15.00
30856;BME280;17570;0.000;0.000;2022-10-14T12:27:22;97057.61;;;32.56;15.02
30856;BME280;17570;0.000;0.000;2022-10-14T12:29:50;97061.32;;;32.50;15.00
30856;BME280;17570;0.000;0.000;2022-10-14T12:32:20;97059.12;;;32.37;14.62
30856;BME280;17570;0.000;0.000;2022-10-14T12:34:47;97061.95;;;32.25;14.63
30856;BME280;17570;0.000;0.000;2022-10-14T12:39:50;97063.96;;;32.08;14.45
30856;BME280;17570;0.000;0.000;2022-10-14T12:42:18;97059.89;;;32.00;14.63
30856;BME280;17570;0.000;0.000;2022-10-14T12:44:54;97057.72;;;31.97;14.10
30856;BME280;17570;0.000;0.000;2022-10-14T12:47:22;97053.41;;;31.96;14.11
30856;BME280;17570;0.000;0.000;2022-10-14T12:49:53;97055.49;;;31.89;13.99
30856;BME280;17570;0.000;0.000;2022-10-14T12:52:22;97049.27;;;31.83;14.13
30856;BME280;17570;0.000;0.000;2022-10-14T12:54:50;97055.22;;;31.85;14.26
30856;BME280;17570;0.000;0.000;2022-10-14T12:57:24;97049.31;;;31.88;14.41
30856;BME280;17570;0.000;0.000;2022-10-14T12:59:52;97051.23;;;31.93;14.76
30856;BME280;17570;0.000;0.000;2022-10-14T13:02:42;97054.48;;;31.95;14.73
30856;BME280;17570;0.000;0.000;2022-10-14T13:04:54;97047.58;;;32.04;14.99
30856;BME280;17570;0.000;0.000;2022-10-14T13:09:47;97053.02;;;32.14;15.26
30856;BME280;17570;0.000;0.000;2022-10-14T13:14:55;97042.61;;;32.23;15.54
30856;BME280;17570;0.000;0.000;2022-10-14T13:17:43;97046.63;;;32.25;16.14
30856;BME280;17570;0.000;0.000;2022-10-14T13:22:51;97047.31;;;32.06;15.72
30856;BME280;17570;0.000;0.000;2022-10-14T13:25:19;97054.77;;;31.98;15.93
30856;BME280;17570;0.000;0.000;2022-10-14T13:30:36;97052.84;;;31.94;15.84
30856;BME280;17570;0.000;0.000;2022-10-14T13:33:04;97048.94;;;31.80;16.17
30856;BME280;17570;0.000;0.000;2022-10-14T13:35:46;97054.80;;;31.71;16.14
30856;BME280;17570;0.000;0.000;2022-10-14T13:38:14;97053.88;;;31.61;15.64
30856;BME280;17570;0.000;0.000;2022-10-14T13:40:52;97053.11;;;31.38;15.85
30856;BME280;17570;0.000;0.000;2022-10-14T13:43:22;97053.81;;;31.29;16.48
30856;BME280;17570;0.000;0.000;2022-10-14T13:45:53;97054.12;;;31.10;16.71
30856;BME280;17570;0.000;0.000;2022-10-14T13:48:26;97056.40;;;30.96;17.08
30856;BME280;17570;0.000;0.000;2022-10-14T13:50:51;97051.34;;;30.78;17.18
30856;BME280;17570;0.000;0.000;2022-10-14T13:53:22;97045.28;;;30.49;17.37
30856;BME280;17570;0.000;0.000;2022-10-14T13:55:50;97049.30;;;30.13;18.02
30856;BME280;17570;0.000;0.000;2022-10-14T13:58:21;97047.35;;;29.91;18.27
30856;BME280;17570;0.000;0.000;2022-10-14T14:03:36;97043.48;;;29.54;18.99
30856;BME280;17570;0.000;0.000;2022-10-14T14:06:00;97038.59;;;29.34;19.18
30856;BME280;17570;0.000;0.000;2022-10-14T14:08:29;97055.12;;;29.19;19.67
30856;BME280;17570;0.000;0.000;2022-10-14T14:10:59;97049.59;;;29.09;20.06
30856;BME280;17570;0.000;0.000;2022-10-14T14:13:29;97045.44;;;28.89;20.49
30856;BME280;17570;0.000;0.000;2022-10-14T14:15:56;97045.14;;;28.74;20.57
30856;BME280;17570;0.000;0.000;2022-10-14T14:18:31;97038.98;;;28.73;20.35
30856;BME280;17570;0.000;0.000;2022-10-14T14:20:56;97042.81;;;28.78;20.48
30856;BME280;17570;0.000;0.000;2022-10-14T14:23:27;97051.54;;;28.61;20.95
30856;BME280;17570;0.000;0.000;2022-10-14T14:25:55;97054.56;;;28.53;20.98
30856;BME280;17570;0.000;0.000;2022-10-14T14:28:24;97050.17;;;28.47;21.44
30856;BME280;17570;0.000;0.000;2022-10-14T14:30:53;97044.36;;;28.38;21.39
30856;BME280;17570;0.000;0.000;2022-10-14T14:33:30;97040.03;;;28.26;21.15
30856;BME280;17570;0.000;0.000;2022-10-14T14:35:57;97045.50;;;28.19;21.15
30856;BME280;17570;0.000;0.000;2022-10-14T14:38:35;97045.97;;;28.04;21.71
30856;BME280;17570;0.000;0.000;2022-10-14T14:41:19;97046.30;;;27.84;22.18
30856;BME280;17570;0.000;0.000;2022-10-14T14:43:30;97049.73;;;27.73;22.35
30856;BME280;17570;0.000;0.000;2022-10-14T14:45:59;97043.59;;;27.73;23.00
30856;BME280;17570;0.000;0.000;2022-10-14T14:48:28;97044.01;;;27.69;22.94
30856;BME280;17570;0.000;0.000;2022-10-14T14:50:58;97047.03;;;27.61;23.27
30856;BME280;17570;0.000;0.000;2022-10-14T14:53:26;97041.97;;;27.41;23.97